Time;durP1;ratioP1;P1;durP2;ratioP2;P2;SDS_P1;SDS_P2;PMS_P1;PMS_P2;Temp;Humidity;BMP_temperature;BMP_pressure;BME280_temperature;BME280_humidity;BME280_pressure;Samples;Min_cycle;Max_cycle;Signal;HPM_P1;HPM_P2
2023/11/04 00:01:55;;;;;;;0.50;0.50;;;;;;;7.85;100.00;96776.11;109837;1251;61251;-68
2023/11/04 00:04:22;;;;;;;0.70;0.40;;;;;;;7.85;100.00;96778.00;109662;1250;59898;-68
2023/11/04 00:06:49;;;;;;;0.40;0.40;;;;;;;7.85;100.00;96784.26;109736;1253;59784;-72
2023/11/04 00:09:16;;;;;;;0.90;0.50;;;;;;;7.83;100.00;96785.84;109529;1250;60228;-72
2023/11/04 00:11:42;;;;;;;0.30;0.30;;;;;;;7.79;100.00;96795.23;109717;1250;65724;-72
2023/11/04 00:14:09;;;;;;;0.80;0.50;;;;;;;7.75;100.00;96800.03;109670;1249;59826;-72
2023/11/04 00:16:35;;;;;;;0.40;0.40;;;;;;;7.71;100.00;96804.77;109524;1250;65055;-72
2023/11/04 00:19:02;;;;;;;0.40;0.40;;;;;;;7.69;100.00;96801.35;109624;1251;59854;-71
2023/11/04 00:21:28;;;;;;;0.50;0.50;;;;;;;7.69;100.00;96804.43;109566;1251;60601;-70
2023/11/04 00:23:55;;;;;;;0.60;0.30;;;;;;;7.69;100.00;96800.50;109532;1251;65838;-71
2023/11/04 00:26:21;;;;;;;1.10;0.40;;;;;;;7.69;100.00;96802.06;109420;1251;60056;-72
2023/11/04 00:28:48;;;;;;;0.40;0.30;;;;;;;7.70;100.00;96807.11;109581;1251;59793;-70
2023/11/04 00:31:14;;;;;;;0.90;0.40;;;;;;;7.71;100.00;96809.37;109564;1251;59755;-71
2023/11/04 00:33:44;;;;;;;0.60;0.40;;;;;;;7.73;100.00;96813.48;109554;1251;59829;-73
2023/11/04 00:36:10;;;;;;;0.50;0.50;;;;;;;7.75;100.00;96815.17;109549;1250;67724;-70
2023/11/04 00:38:37;;;;;;;0.50;0.40;;;;;;;7.77;100.00;96819.95;109389;1251;60096;-71
2023/11/04 00:41:06;;;;;;;0.40;0.40;;;;;;;7.79;100.00;96828.77;109793;1251;64046;-71
2023/11/04 00:43:33;;;;;;;0.30;0.30;;;;;;;7.83;100.00;96827.58;109669;1251;59797;-72
2023/11/04 00:46:00;;;;;;;0.50;0.50;;;;;;;7.84;100.00;96826.88;109609;1251;60176;-72
2023/11/04 00:48:26;;;;;;;0.90;0.50;;;;;;;7.86;100.00;96832.02;109731;1250;68119;-71
2023/11/04 00:50:53;;;;;;;0.80;0.50;;;;;;;7.86;100.00;96829.70;109511;1251;60198;-72
2023/11/04 00:53:19;;;;;;;0.50;0.50;;;;;;;7.88;100.00;96830.39;109475;1251;63786;-72
2023/11/04 00:55:46;;;;;;;0.60;0.60;;;;;;;7.90;100.00;96835.50;109673;1250;60059;-72
2023/11/04 00:58:13;;;;;;;1.30;0.50;;;;;;;7.92;100.00;96840.67;109508;1251;59846;-73
2023/11/04 01:00:39;;;;;;;0.50;0.50;;;;;;;7.94;100.00;96841.20;109815;1251;60266;-72
2023/11/04 01:03:06;;;;;;;1.30;0.50;;;;;;;7.95;100.00;96835.27;109696;1251;60293;-72
2023/11/04 01:05:33;;;;;;;0.30;0.30;;;;;;;7.96;100.00;96837.33;109805;1251;64406;-72
2023/11/04 01:08:00;;;;;;;0.50;0.50;;;;;;;7.97;100.00;96842.34;109806;1250;59878;-72
2023/11/04 01:10:27;;;;;;;1.00;0.50;;;;;;;7.98;100.00;96841.25;109832;1250;60079;-72
2023/11/04 01:12:54;;;;;;;0.50;0.40;;;;;;;7.99;100.00;96845.19;109819;1253;68017;-73
2023/11/04 01:15:20;;;;;;;1.70;0.60;;;;;;;8.00;100.00;96841.36;109819;1250;59781;-72
2023/11/04 01:17:47;;;;;;;0.60;0.50;;;;;;;8.01;100.00;96837.02;109506;1251;62523;-71
2023/11/04 01:20:13;;;;;;;0.90;0.60;;;;;;;8.03;100.00;96841.15;109763;1251;59885;-72
2023/11/04 01:22:40;;;;;;;1.00;0.40;;;;;;;8.04;100.00;96843.86;109801;1249;59820;-73
2023/11/04 01:25:07;;;;;;;0.80;0.50;;;;;;;8.07;100.00;96843.96;109813;1250;65630;-72
2023/11/04 01:27:34;;;;;;;0.50;0.50;;;;;;;8.08;100.00;96844.20;109199;1254;60180;-72
2023/11/04 01:30:01;;;;;;;0.70;0.50;;;;;;;8.08;100.00;96841.85;109092;1254;59968;-72
2023/11/04 01:32:27;;;;;;;0.50;0.40;;;;;;;8.08;100.00;96839.60;109289;1254;60098;-72
2023/11/04 01:34:54;;;;;;;0.60;0.50;;;;;;;8.06;100.00;96842.74;109155;1255;59914;-72
2023/11/04 01:37:25;;;;;;;0.90;0.60;;;;;;;8.06;100.00;96842.99;109351;1254;66670;-72
2023/11/04 01:39:52;;;;;;;0.80;0.40;;;;;;;8.04;100.00;96844.89;109283;1255;61043;-72
2023/11/04 01:42:18;;;;;;;1.20;0.60;;;;;;;8.03;100.00;96845.84;109262;1257;64585;-72
2023/11/04 01:44:45;;;;;;;0.60;0.60;;;;;;;8.02;100.00;96847.73;109169;1256;59920;-72
2023/11/04 01:47:14;;;;;;;1.30;0.50;;;;;;;8.01;100.00;96847.30;109234;1257;59960;-72
2023/11/04 01:49:41;;;;;;;2.40;0.60;;;;;;;8.00;100.00;96849.66;109238;1257;66708;-72
2023/11/04 01:52:08;;;;;;;0.80;0.50;;;;;;;8.01;100.00;96848.94;109250;1257;60144;-71
2023/11/04 01:54:36;;;;;;;2.10;0.80;;;;;;;8.01;100.00;96856.27;109245;1255;63886;-72
2023/11/04 01:57:03;;;;;;;1.10;1.00;;;;;;;8.03;100.00;96852.11;109248;1257;60178;-72
2023/11/04 01:59:31;;;;;;;0.90;0.80;;;;;;;8.05;100.00;96859.36;109200;1251;59780;-71
2023/11/04 02:02:00;;;;;;;0.90;0.80;;;;;;;8.06;100.00;96863.06;109667;1251;68059;-71
2023/11/04 02:04:28;;;;;;;2.30;1.20;;;;;;;8.08;100.00;96867.90;109692;1251;59914;-71
2023/11/04 02:06:55;;;;;;;2.50;1.80;;;;;;;8.10;100.00;96871.27;109678;1251;64193;-72
2023/11/04 02:09:21;;;;;;;3.40;1.90;;;;;;;8.11;100.00;96870.67;109655;1249;59810;-73
2023/11/04 02:11:48;;;;;;;4.00;1.50;;;;;;;8.12;100.00;96873.70;109720;1251;59858;-74
2023/11/04 02:14:14;;;;;;;3.20;2.00;;;;;;;8.14;100.00;96877.06;109666;1249;65617;-72
2023/11/04 02:16:40;;;;;;;2.20;1.70;;;;;;;8.15;100.00;96876.79;109721;1251;59828;-71
2023/11/04 02:19:07;;;;;;;3.40;1.90;;;;;;;8.17;100.00;96876.29;109717;1251;59820;-72
2023/11/04 02:21:33;;;;;;;3.40;2.00;;;;;;;8.16;100.00;96875.16;109698;1249;59788;-71
2023/11/04 02:24:00;;;;;;;2.70;1.40;;;;;;;8.13;100.00;96878.06;109663;1251;59925;-72
2023/11/04 02:26:27;;;;;;;1.80;1.20;;;;;;;8.09;100.00;96880.02;109689;1251;59789;-71
2023/11/04 02:28:53;;;;;;;1.60;1.20;;;;;;;8.04;100.00;96884.04;109697;1250;60734;-72
2023/11/04 02:31:19;;;;;;;1.40;0.60;;;;;;;8.00;100.00;96890.16;109670;1251;59855;-71
2023/11/04 02:33:46;;;;;;;1.20;0.70;;;;;;;8.00;100.00;96888.84;109685;1250;59753;-72
2023/11/04 02:36:12;;;;;;;0.60;0.60;;;;;;;7.99;100.00;96891.02;109738;1251;60143;-71
2023/11/04 02:38:39;;;;;;;1.10;0.70;;;;;;;7.98;100.00;96893.01;109652;1252;60658;-72
2023/11/04 02:41:05;;;;;;;1.70;0.70;;;;;;;7.99;100.00;96894.90;109654;1250;59777;-71
2023/11/04 02:43:32;;;;;;;1.20;0.80;;;;;;;7.99;100.00;96892.21;109690;1250;59752;-71
2023/11/04 02:45:59;;;;;;;1.90;1.10;;;;;;;8.00;100.00;96890.70;109648;1251;59797;-71
2023/11/04 02:48:25;;;;;;;1.70;0.70;;;;;;;8.01;100.00;96888.13;109678;1251;60021;-71
2023/11/04 02:50:51;;;;;;;0.70;0.70;;;;;;;8.00;100.00;96892.29;109714;1250;59856;-72
2023/11/04 02:53:18;;;;;;;2.30;0.90;;;;;;;7.99;100.00;96895.96;109700;1251;59769;-71
2023/11/04 02:55:44;;;;;;;1.00;0.90;;;;;;;8.00;100.00;96904.58;109655;1251;59874;-71
2023/11/04 02:58:11;;;;;;;1.10;0.70;;;;;;;8.02;100.00;96906.84;109676;1251;59791;-72
2023/11/04 03:00:38;;;;;;;0.60;0.60;;;;;;;8.06;100.00;96905.06;109370;1249;59833;-71
2023/11/04 03:03:04;;;;;;;1.30;0.60;;;;;;;8.09;100.00;96904.17;109627;1250;65549;-71
2023/11/04 03:05:31;;;;;;;1.10;0.70;;;;;;;8.14;100.00;96911.73;109673;1250;60121;-72
2023/11/04 03:07:58;;;;;;;0.80;0.80;;;;;;;8.17;100.00;96914.45;109708;1251;59969;-71
2023/11/04 03:10:24;;;;;;;0.80;0.60;;;;;;;8.20;100.00;96915.23;109702;1251;60101;-71
2023/11/04 03:12:51;;;;;;;0.80;0.60;;;;;;;8.24;100.00;96920.05;109685;1250;59776;-71
2023/11/04 03:15:17;;;;;;;0.60;0.60;;;;;;;8.26;100.00;96926.52;109718;1250;66626;-72
2023/11/04 03:17:44;;;;;;;1.20;0.70;;;;;;;8.28;100.00;96927.11;109631;1253;59726;-72
2023/11/04 03:20:10;;;;;;;0.60;0.60;;;;;;;8.29;100.00;96929.81;109676;1250;62925;-72
2023/11/04 03:22:37;;;;;;;0.70;0.40;;;;;;;8.30;100.00;96923.91;109478;1254;59792;-72
2023/11/04 03:25:05;;;;;;;1.00;0.60;;;;;;;8.31;100.00;96926.86;109742;1251;59761;-72
2023/11/04 03:27:31;;;;;;;0.60;0.60;;;;;;;8.31;100.00;96929.43;109689;1251;65609;-72
2023/11/04 03:29:58;;;;;;;0.70;0.60;;;;;;;8.32;100.00;96926.58;109666;1251;59788;-72
2023/11/04 03:32:24;;;;;;;0.80;0.50;;;;;;;8.32;100.00;96935.25;109705;1249;59850;-72
2023/11/04 03:34:50;;;;;;;1.10;0.70;;;;;;;8.30;100.00;96935.03;109716;1251;59795;-72
2023/11/04 03:37:17;;;;;;;1.30;0.60;;;;;;;8.27;100.00;96938.52;109698;1249;59840;-72
2023/11/04 03:39:43;;;;;;;1.00;0.60;;;;;;;8.23;100.00;96938.84;109681;1251;59741;-72
2023/11/04 03:42:10;;;;;;;0.90;0.70;;;;;;;8.21;100.00;96943.98;109704;1250;59832;-72
2023/11/04 03:44:37;;;;;;;1.50;0.70;;;;;;;8.20;100.00;96947.30;109680;1250;64092;-72
2023/11/04 03:47:03;;;;;;;0.80;0.80;;;;;;;8.20;100.00;96952.25;109679;1250;59794;-71
2023/11/04 03:49:30;;;;;;;0.60;0.60;;;;;;;8.20;100.00;96962.27;109439;1251;59951;-70
2023/11/04 03:51:56;;;;;;;1.20;0.70;;;;;;;8.21;100.00;96971.40;109707;1250;66677;-71
2023/11/04 03:54:23;;;;;;;0.60;0.60;;;;;;;8.23;100.00;96979.20;109689;1251;60028;-71
2023/11/04 03:56:50;;;;;;;1.30;1.20;;;;;;;8.25;100.00;96986.27;109676;1250;59827;-71
2023/11/04 03:59:16;;;;;;;1.70;0.80;;;;;;;8.27;100.00;96992.17;109689;1251;59824;-72
2023/11/04 04:01:43;;;;;;;0.80;0.80;;;;;;;8.28;100.00;96997.84;109668;1251;59886;-71
2023/11/04 04:04:09;;;;;;;1.60;0.80;;;;;;;8.31;100.00;96997.77;109724;1249;59693;-71
2023/11/04 04:06:36;;;;;;;1.50;0.90;;;;;;;8.32;100.00;97003.13;109744;1250;61300;-72
2023/11/04 04:09:03;;;;;;;1.20;1.10;;;;;;;8.34;100.00;97005.47;109669;1249;59907;-72
2023/11/04 04:11:30;;;;;;;0.90;0.90;;;;;;;8.35;100.00;97003.61;109708;1250;59995;-72
2023/11/04 04:13:56;;;;;;;1.90;0.70;;;;;;;8.37;100.00;97007.32;109490;1250;60097;-72
2023/11/04 04:16:23;;;;;;;1.30;1.00;;;;;;;8.39;100.00;97000.64;109690;1249;66839;-72
2023/11/04 04:18:50;;;;;;;0.70;0.70;;;;;;;8.41;100.00;96999.80;109717;1250;60381;-72
2023/11/04 04:21:17;;;;;;;0.90;0.70;;;;;;;8.42;100.00;96996.46;109474;1249;64140;-72
2023/11/04 04:23:44;;;;;;;1.20;1.00;;;;;;;8.43;100.00;96995.86;109699;1250;59768;-72
2023/11/04 04:26:17;;;;;;;2.00;1.10;;;;;;;8.43;100.00;96997.79;109722;1250;59826;-72
2023/11/04 04:28:44;;;;;;;2.30;1.30;;;;;;;8.43;100.00;96992.89;109657;1251;65326;-70
2023/11/04 04:31:11;;;;;;;0.90;0.90;;;;;;;8.43;100.00;96994.33;109695;1251;59764;-70
2023/11/04 04:33:37;;;;;;;1.10;1.00;;;;;;;8.42;100.00;96997.52;109705;1250;62509;-71
2023/11/04 04:36:04;;;;;;;1.30;1.20;;;;;;;8.43;100.00;97001.90;109659;1249;59798;-71
2023/11/04 04:38:31;;;;;;;2.10;1.40;;;;;;;8.44;100.00;97005.71;109724;1249;59916;-71
2023/11/04 04:40:57;;;;;;;2.30;1.50;;;;;;;8.44;100.00;97018.96;109684;1251;66857;-71
2023/11/04 04:43:24;;;;;;;2.40;1.10;;;;;;;8.44;100.00;97025.80;109682;1250;61003;-72
2023/11/04 04:45:50;;;;;;;3.30;1.60;;;;;;;8.45;100.00;97029.67;109676;1250;60106;-71
2023/11/04 04:48:16;;;;;;;3.30;1.80;;;;;;;8.45;100.00;97032.27;109682;1249;59847;-71
2023/11/04 04:50:43;;;;;;;3.40;1.60;;;;;;;8.45;100.00;97033.34;109681;1251;59878;-71
2023/11/04 04:53:10;;;;;;;2.20;1.50;;;;;;;8.45;100.00;97036.34;109664;1250;75420;-71
2023/11/04 04:55:36;;;;;;;3.70;1.70;;;;;;;8.45;100.00;97036.71;109719;1249;60185;-71
2023/11/04 04:58:02;;;;;;;2.10;1.60;;;;;;;8.45;100.00;97038.13;109694;1249;59921;-71
2023/11/04 05:00:30;;;;;;;1.30;1.20;;;;;;;8.45;100.00;97039.70;109645;1250;60076;-71
2023/11/04 05:02:56;;;;;;;1.50;1.10;;;;;;;8.45;100.00;97037.65;109673;1249;59847;-71
2023/11/04 05:05:23;;;;;;;2.20;1.20;;;;;;;8.44;100.00;97033.79;109554;1251;65226;-71
2023/11/04 05:07:49;;;;;;;2.60;1.20;;;;;;;8.45;100.00;97034.27;109727;1251;59788;-71
2023/11/04 05:10:16;;;;;;;2.00;1.80;;;;;;;8.44;100.00;97033.10;109619;1251;63756;-71
2023/11/04 05:12:42;;;;;;;2.30;1.90;;;;;;;8.43;100.00;97035.81;109524;1251;59778;-71
2023/11/04 05:15:09;;;;;;;3.70;1.70;;;;;;;8.43;100.00;97037.13;109667;1251;59863;-71
2023/11/04 05:17:36;;;;;;;2.60;1.60;;;;;;;8.41;100.00;97038.98;109682;1251;65717;-71
2023/11/04 05:20:04;;;;;;;2.80;1.50;;;;;;;8.39;100.00;97043.30;109695;1249;59828;-71
2023/11/04 05:22:30;;;;;;;2.30;1.20;;;;;;;8.37;100.00;97049.45;109389;1249;63793;-71
2023/11/04 05:24:58;;;;;;;2.40;1.30;;;;;;;8.34;100.00;97055.54;109667;1250;59790;-70
2023/11/04 05:27:24;;;;;;;1.50;1.40;;;;;;;8.31;100.00;97058.95;109551;1250;59771;-71
2023/11/04 05:29:52;;;;;;;1.60;1.40;;;;;;;8.29;100.00;97058.42;109665;1250;59672;-71
2023/11/04 05:32:19;;;;;;;1.80;1.30;;;;;;;8.28;100.00;97058.55;109737;1250;59775;-71
2023/11/04 05:34:46;;;;;;;2.30;1.60;;;;;;;8.23;100.00;97063.77;109699;1249;59890;-71
2023/11/04 05:37:13;;;;;;;1.60;1.20;;;;;;;8.18;100.00;97062.84;109706;1250;60077;-71
2023/11/04 05:39:40;;;;;;;3.50;1.40;;;;;;;8.12;100.00;97059.98;109666;1249;59827;-72
2023/11/04 05:42:06;;;;;;;1.50;1.20;;;;;;;8.05;100.00;97062.84;109715;1250;65790;-71
2023/11/04 05:44:33;;;;;;;1.70;1.60;;;;;;;7.99;100.00;97068.86;109714;1250;59761;-71
2023/11/04 05:46:59;;;;;;;1.70;1.30;;;;;;;7.94;100.00;97072.20;109687;1250;60029;-74
2023/11/04 05:49:27;;;;;;;1.50;1.40;;;;;;;7.87;100.00;97072.90;109672;1250;59767;-71
2023/11/04 05:51:53;;;;;;;1.90;1.20;;;;;;;7.82;100.00;97074.76;109682;1250;59813;-71
2023/11/04 05:54:20;;;;;;;1.80;1.10;;;;;;;7.79;100.00;97082.13;109705;1249;66928;-70
2023/11/04 05:56:46;;;;;;;2.10;1.20;;;;;;;7.77;100.00;97079.30;109688;1249;59842;-70
2023/11/04 05:59:13;;;;;;;1.70;1.00;;;;;;;7.75;100.00;97072.91;109678;1249;59866;-72
2023/11/04 06:01:39;;;;;;;2.10;1.40;;;;;;;7.74;100.00;97072.80;109688;1250;59743;-72
2023/11/04 06:04:06;;;;;;;1.90;1.10;;;;;;;7.75;100.00;97068.16;109535;1250;59866;-69
2023/11/04 06:06:33;;;;;;;2.40;1.40;;;;;;;7.78;100.00;97065.27;109530;1251;66870;-68
2023/11/04 06:09:00;;;;;;;2.40;1.40;;;;;;;7.83;100.00;97067.61;109690;1250;60162;-68
2023/11/04 06:11:26;;;;;;;2.40;1.50;;;;;;;7.90;100.00;97067.05;109692;1250;62530;-69
2023/11/04 06:13:53;;;;;;;2.10;1.90;;;;;;;7.96;100.00;97068.64;109668;1250;59799;-67
2023/11/04 06:16:20;;;;;;;2.10;1.80;;;;;;;7.99;100.00;97065.69;109690;1250;59744;-68
2023/11/04 06:18:47;;;;;;;2.30;1.70;;;;;;;8.01;100.00;97068.95;109423;1250;66908;-68
2023/11/04 06:21:15;;;;;;;2.80;2.10;;;;;;;8.03;100.00;97068.94;109683;1250;59900;-68
2023/11/04 06:23:42;;;;;;;3.20;2.00;;;;;;;8.05;100.00;97068.36;109695;1249;65187;-68
2023/11/04 06:26:08;;;;;;;5.10;3.40;;;;;;;8.07;100.00;97067.09;109663;1250;59864;-67
2023/11/04 06:28:35;;;;;;;5.70;3.10;;;;;;;8.10;100.00;97073.55;109691;1250;60043;-67
2023/11/04 06:31:09;;;;;;;4.10;2.50;;;;;;;8.14;100.00;97077.49;109750;1249;60097;-68
2023/11/04 06:33:35;;;;;;;4.30;2.30;;;;;;;8.19;100.00;97077.76;109710;1250;60071;-68
2023/11/04 06:36:02;;;;;;;3.90;2.60;;;;;;;8.23;100.00;97081.27;109532;1250;59881;-68
2023/11/04 06:38:29;;;;;;;3.30;2.20;;;;;;;8.27;100.00;97078.65;109632;1249;59773;-68
2023/11/04 06:40:56;;;;;;;4.80;2.10;;;;;;;8.29;100.00;97077.22;109441;1249;60042;-68
2023/11/04 06:43:22;;;;;;;2.60;1.30;;;;;;;8.30;100.00;97078.73;109526;1251;66746;-69
2023/11/04 06:45:49;;;;;;;5.20;1.70;;;;;;;8.32;100.00;97078.20;109407;1249;60131;-69
2023/11/04 06:48:15;;;;;;;3.70;1.70;;;;;;;8.36;100.00;97078.77;109673;1250;59938;-69
2023/11/04 06:50:42;;;;;;;4.70;2.00;;;;;;;8.39;100.00;97082.58;109711;1249;59796;-69
2023/11/04 06:53:08;;;;;;;3.40;2.00;;;;;;;8.42;100.00;97079.62;109549;1251;59801;-68
2023/11/04 06:55:35;;;;;;;3.00;1.80;;;;;;;8.47;100.00;97079.88;109366;1251;60360;-68
2023/11/04 06:58:01;;;;;;;2.70;1.40;;;;;;;8.53;100.00;97076.32;109755;1250;59959;-68
2023/11/04 07:00:28;;;;;;;2.40;1.60;;;;;;;8.62;100.00;97082.87;109485;1250;59896;-68
2023/11/04 07:02:54;;;;;;;2.40;1.70;;;;;;;8.69;100.00;97082.04;109537;1251;59844;-69
2023/11/04 07:05:23;;;;;;;2.80;1.70;;;;;;;8.76;100.00;97087.61;109710;1250;59718;-68
2023/11/04 07:07:50;;;;;;;2.20;1.60;;;;;;;8.79;100.00;97092.39;109723;1250;65551;-69
2023/11/04 07:10:18;;;;;;;2.20;1.80;;;;;;;8.82;100.00;97091.52;109741;1249;60505;-68
2023/11/04 07:12:44;;;;;;;2.90;1.80;;;;;;;8.84;100.00;97089.35;109486;1251;64047;-69
2023/11/04 07:15:11;;;;;;;3.30;2.00;;;;;;;8.84;100.00;97094.27;109674;1250;59765;-69
2023/11/04 07:17:37;;;;;;;3.20;2.10;;;;;;;8.86;100.00;97095.19;109710;1250;59805;-70
2023/11/04 07:20:07;;;;;;;4.40;2.80;;;;;;;8.88;100.00;97096.25;109677;1249;59724;-68
2023/11/04 07:22:34;;;;;;;5.00;3.50;;;;;;;8.90;100.00;97096.77;109700;1250;59874;-69
2023/11/04 07:25:00;;;;;;;7.60;3.60;;;;;;;8.92;100.00;97098.55;109532;1250;62761;-69
2023/11/04 07:27:27;;;;;;;3.10;2.20;;;;;;;8.92;100.00;97096.01;109644;1250;60155;-68
2023/11/04 07:29:53;;;;;;;4.10;2.60;;;;;;;8.94;100.00;97092.72;109690;1249;59784;-67
2023/11/04 07:32:20;;;;;;;3.30;2.70;;;;;;;8.98;100.00;97093.41;109642;1250;68083;-68
2023/11/04 07:34:47;;;;;;;5.00;3.70;;;;;;;9.04;100.00;97096.04;109554;1250;59941;-68
2023/11/04 07:37:14;;;;;;;5.40;3.80;;;;;;;9.08;100.00;97093.89;109653;1250;64239;-67
2023/11/04 07:39:41;;;;;;;6.50;3.80;;;;;;;9.09;100.00;97094.33;109661;1250;60073;-68
2023/11/04 07:42:07;;;;;;;6.50;3.90;;;;;;;9.08;100.00;97092.59;109668;1250;59814;-69
2023/11/04 07:44:34;;;;;;;5.70;4.00;;;;;;;9.06;100.00;97089.87;109371;1250;66457;-68
2023/11/04 07:47:01;;;;;;;6.30;3.50;;;;;;;9.01;100.00;97088.49;109699;1249;60347;-69
2023/11/04 07:49:28;;;;;;;5.30;3.60;;;;;;;8.97;100.00;97083.52;109662;1249;62479;-68
2023/11/04 07:51:55;;;;;;;6.10;3.80;;;;;;;8.92;100.00;97080.44;109662;1250;59811;-68
2023/11/04 07:54:21;;;;;;;6.40;4.40;;;;;;;8.88;100.00;97078.86;109680;1249;59881;-69
2023/11/04 07:56:48;;;;;;;5.50;3.70;;;;;;;8.85;100.00;97086.77;109404;1250;67071;-69
2023/11/04 07:59:14;;;;;;;6.40;4.20;;;;;;;8.80;100.00;97089.69;109691;1250;59847;-69
2023/11/04 08:01:40;;;;;;;8.30;5.50;;;;;;;8.77;100.00;97091.02;109681;1249;59896;-69
2023/11/04 08:04:07;;;;;;;5.90;4.70;;;;;;;8.79;100.00;97092.63;109784;1249;59818;-69
2023/11/04 08:06:33;;;;;;;8.00;5.50;;;;;;;8.84;100.00;97093.83;109856;1249;60256;-69
2023/11/04 08:09:00;;;;;;;6.00;4.70;;;;;;;8.86;100.00;97090.41;109806;1249;59779;-69
2023/11/04 08:11:26;;;;;;;6.40;4.20;;;;;;;8.87;100.00;97087.64;109816;1249;59881;-68
2023/11/04 08:13:53;;;;;;;7.10;4.10;;;;;;;8.89;100.00;97091.73;109782;1250;59887;-69
2023/11/04 08:16:19;;;;;;;8.60;4.90;;;;;;;8.94;100.00;97089.64;109570;1249;59868;-68
2023/11/04 08:18:46;;;;;;;6.70;3.50;;;;;;;8.98;100.00;97088.71;109513;1249;59775;-68
2023/11/04 08:21:16;;;;;;;7.40;3.80;;;;;;;9.02;100.00;97091.27;109840;1249;59766;-71
2023/11/04 08:23:42;;;;;;;7.40;4.20;;;;;;;9.08;100.00;97095.67;109829;1250;60351;-69
2023/11/04 08:26:10;;;;;;;7.90;4.50;;;;;;;9.15;100.00;97102.42;109815;1249;62673;-68
2023/11/04 08:28:36;;;;;;;11.90;7.60;;;;;;;9.24;100.00;97105.48;109806;1249;60055;-69
2023/11/04 08:31:03;;;;;;;11.90;9.60;;;;;;;9.35;100.00;97104.00;109491;1250;59838;-72
2023/11/04 08:33:30;;;;;;;11.90;8.20;;;;;;;9.45;100.00;97103.42;109823;1249;65715;-68
2023/11/04 08:35:56;;;;;;;7.40;4.80;;;;;;;9.55;100.00;97105.48;109850;1249;59990;-68
2023/11/04 08:38:23;;;;;;;8.50;4.20;;;;;;;9.65;100.00;97097.29;109505;1250;59860;-67
2023/11/04 08:40:51;;;;;;;6.40;3.40;;;;;;;9.70;100.00;97093.09;109782;1249;59841;-68
2023/11/04 08:43:17;;;;;;;7.80;3.90;;;;;;;9.69;100.00;97094.82;109791;1250;60111;-67
2023/11/04 08:45:44;;;;;;;5.00;3.40;;;;;;;9.72;100.00;97094.92;109544;1249;66984;-68
2023/11/04 08:48:10;;;;;;;7.10;4.90;;;;;;;9.78;100.00;97097.82;109834;1249;59745;-67
2023/11/04 08:50:36;;;;;;;5.50;3.40;;;;;;;9.85;100.00;97101.47;109820;1250;60051;-68
2023/11/04 08:53:04;;;;;;;6.90;3.30;;;;;;;9.90;100.00;97102.37;109785;1250;59730;-69
2023/11/04 08:55:31;;;;;;;5.80;3.20;;;;;;;9.91;100.00;97105.18;109571;1250;59928;-69
2023/11/04 08:57:57;;;;;;;4.70;2.80;;;;;;;9.96;100.00;97103.79;109806;1249;67156;-68
2023/11/04 09:00:24;;;;;;;4.00;2.80;;;;;;;10.05;100.00;97107.54;109830;1250;59771;-69
2023/11/04 09:02:51;;;;;;;5.80;3.30;;;;;;;10.13;100.00;97105.23;109801;1249;64157;-68
2023/11/04 09:05:18;;;;;;;5.40;3.00;;;;;;;10.18;100.00;97106.66;109807;1249;59899;-69
2023/11/04 09:07:44;;;;;;;4.30;2.90;;;;;;;10.25;100.00;97102.41;109824;1251;59758;-69
2023/11/04 09:10:11;;;;;;;4.00;2.80;;;;;;;10.34;100.00;97101.27;109813;1249;84813;-69
2023/11/04 09:12:38;;;;;;;4.70;2.90;;;;;;;10.45;100.00;97097.75;109879;1250;59956;-69
2023/11/04 09:15:05;;;;;;;5.80;3.00;;;;;;;10.53;100.00;97093.51;109751;1251;65607;-68
2023/11/04 09:17:32;;;;;;;6.80;2.90;;;;;;;10.56;100.00;97088.48;109763;1249;60305;-69
2023/11/04 09:19:59;;;;;;;6.30;3.30;;;;;;;10.59;100.00;97086.29;109802;1249;59755;-68
2023/11/04 09:22:25;;;;;;;7.80;3.20;;;;;;;10.60;100.00;97083.09;109830;1251;60082;-69
2023/11/04 09:24:52;;;;;;;5.00;2.50;;;;;;;10.63;100.00;97085.83;109841;1249;59720;-68
2023/11/04 09:27:19;;;;;;;3.60;2.20;;;;;;;10.71;100.00;97083.25;109821;1249;63194;-69
2023/11/04 09:29:45;;;;;;;4.10;2.30;;;;;;;10.75;100.00;97075.09;109827;1249;60070;-69
2023/11/04 09:32:13;;;;;;;6.60;2.30;;;;;;;10.80;100.00;97069.29;109341;1250;59917;-69
2023/11/04 09:34:40;;;;;;;5.20;2.10;;;;;;;10.86;100.00;97064.92;109573;1249;76658;-69
2023/11/04 09:37:06;;;;;;;4.00;2.10;;;;;;;10.91;100.00;97065.47;109839;1248;60310;-69
2023/11/04 09:39:32;;;;;;;2.10;1.50;;;;;;;10.98;100.00;97059.50;109820;1249;59798;-69
2023/11/04 09:41:59;;;;;;;3.20;2.10;;;;;;;11.07;100.00;97057.58;109812;1249;59781;-69
2023/11/04 09:44:26;;;;;;;4.10;1.80;;;;;;;11.13;100.00;97057.24;109835;1249;59723;-68
2023/11/04 09:46:52;;;;;;;3.00;1.80;;;;;;;11.20;100.00;97055.16;109852;1250;65470;-69
2023/11/04 09:49:19;;;;;;;3.40;1.70;;;;;;;11.25;100.00;97055.70;109452;1251;60923;-69
2023/11/04 09:51:45;;;;;;;3.10;1.60;;;;;;;11.27;100.00;97054.67;109829;1249;64082;-68
2023/11/04 09:54:13;;;;;;;2.30;1.20;;;;;;;11.34;100.00;97050.38;109710;1249;59805;-74
2023/11/04 09:56:40;;;;;;;3.10;1.40;;;;;;;11.42;100.00;97039.70;109566;1249;59810;-74
2023/11/04 09:59:07;;;;;;;3.80;2.10;;;;;;;11.50;100.00;97039.45;109649;1250;60137;-72
2023/11/04 10:01:33;;;;;;;3.10;2.20;;;;;;;11.55;100.00;97035.91;109693;1249;60441;-73
2023/11/04 10:04:00;;;;;;;3.80;1.20;;;;;;;11.63;100.00;97033.86;109771;1249;62566;-72
2023/11/04 10:06:27;;;;;;;2.60;1.30;;;;;;;11.69;100.00;97037.06;109841;1250;59962;-68
2023/11/04 10:08:54;;;;;;;3.00;1.60;;;;;;;11.72;100.00;97036.05;109791;1250;59920;-69
2023/11/04 10:11:20;;;;;;;1.70;1.20;;;;;;;11.79;100.00;97037.02;109833;1250;66537;-68
2023/11/04 10:13:47;;;;;;;1.20;1.10;;;;;;;11.87;100.00;97034.77;109836;1249;59770;-68
2023/11/04 10:16:15;;;;;;;2.70;1.20;;;;;;;11.95;100.00;97027.23;109788;1249;73789;-69
2023/11/04 10:18:42;;;;;;;3.00;1.40;;;;;;;12.02;100.00;97025.03;109810;1249;60035;-75
2023/11/04 10:21:09;;;;;;;2.80;1.20;;;;;;;12.11;100.00;97024.85;109875;1249;59627;-72
2023/11/04 10:23:35;;;;;;;2.60;1.40;;;;;;;12.15;100.00;97020.34;109827;1250;65272;-72
2023/11/04 10:26:03;;;;;;;1.80;1.30;;;;;;;12.15;100.00;97019.23;109896;1250;59778;-71
2023/11/04 10:28:30;;;;;;;2.70;1.20;;;;;;;12.17;100.00;97019.06;109875;1250;63786;-72
2023/11/04 10:31:03;;;;;;;2.30;0.90;;;;;;;12.19;100.00;97015.27;109844;1250;59828;-75
2023/11/04 10:33:37;;;;;;;1.60;0.70;;;;;;;12.17;100.00;97014.13;109597;1249;60072;-74
2023/11/04 10:36:04;;;;;;;2.30;1.00;;;;;;;12.16;100.00;97014.92;109823;1249;76247;-73
2023/11/04 10:38:38;;;;;;;2.30;1.30;;;;;;;12.18;100.00;97012.40;109924;1249;60089;-74
2023/11/04 10:41:06;;;;;;;3.20;1.90;;;;;;;12.16;100.00;97006.91;109907;1249;65215;-75
2023/11/04 10:43:43;;;;;;;4.00;1.60;;;;;;;12.15;100.00;97005.29;109424;1250;59848;-77
2023/11/04 10:46:17;;;;;;;1.40;1.00;;;;;;;12.15;100.00;97001.14;109862;1250;59838;-66
2023/11/04 10:48:51;;;;;;;2.60;1.40;;;;;;;12.17;100.00;96999.48;109864;1249;68046;-67
2023/11/04 10:51:21;;;;;;;2.30;1.40;;;;;;;12.19;100.00;96992.37;109890;1250;69935;-67
2023/11/04 10:54:16;;;;;;;2.00;1.10;;;;;;;12.23;100.00;96986.41;109814;1250;65197;-67
2023/11/04 10:56:47;;;;;;;1.10;0.80;;;;;;;12.24;100.00;96984.95;109828;1250;59839;-68
2023/11/04 10:59:18;;;;;;;1.40;0.90;;;;;;;12.27;100.00;96986.63;109571;1250;60301;-68
2023/11/04 11:01:46;;;;;;;2.50;1.50;;;;;;;12.34;100.00;96984.84;109576;1251;66632;-67
2023/11/04 11:04:16;;;;;;;2.00;1.10;;;;;;;12.41;100.00;96984.86;109871;1249;61312;-68
2023/11/04 11:06:43;;;;;;;2.20;1.30;;;;;;;12.43;100.00;96985.73;109785;1250;64784;-67
2023/11/04 11:09:11;;;;;;;2.40;1.20;;;;;;;12.42;100.00;96982.55;109826;1250;59786;-67
2023/11/04 11:11:44;;;;;;;2.50;1.10;;;;;;;12.47;100.00;96981.10;109907;1249;59758;-67
2023/11/04 11:14:11;;;;;;;1.90;1.10;;;;;;;12.49;100.00;96975.92;109818;1249;68124;-66
2023/11/04 11:16:38;;;;;;;2.20;1.20;;;;;;;12.45;100.00;96971.45;109839;1249;60898;-67
2023/11/04 11:19:11;;;;;;;4.00;2.20;;;;;;;12.43;100.00;96964.83;109842;1249;65327;-68
2023/11/04 11:21:49;;;;;;;4.10;1.80;;;;;;;12.41;100.00;96964.39;109859;1249;59742;-67
2023/11/04 11:24:20;;;;;;;3.90;1.20;;;;;;;12.37;100.00;96964.04;109809;1250;59659;-67